Time;durP1;ratioP1;P1;durP2;ratioP2;P2;SDS_P1;SDS_P2;PMS_P1;PMS_P2;Temp;Humidity;BMP_temperature;BMP_pressure;BME280_temperature;BME280_humidity;BME280_pressure;Samples;Min_cycle;Max_cycle;Signal;HPM_P1;HPM_P2
2023/05/25 00:06:12;;;;;;;13.20;7.43;;;;;;;9.34;73.48;100793.94;30742979;28;98087;-65
2023/05/25 00:21:12;;;;;;;12.60;7.50;;;;;;;9.23;73.79;100789.66;30744609;28;96717;-66
2023/05/25 00:36:14;;;;;;;16.03;7.47;;;;;;;9.14;73.13;100786.06;30742709;28;96649;-66
2023/05/25 00:51:15;;;;;;;16.40;6.90;;;;;;;9.08;73.87;100797.25;30741255;28;96631;-64
2023/05/25 01:06:16;;;;;;;19.27;7.70;;;;;;;8.94;74.18;100803.91;30740861;28;97293;-64
2023/05/25 01:21:25;;;;;;;12.27;7.17;;;;;;;8.78;73.80;100807.13;30739278;28;96821;-64
2023/05/25 01:36:26;;;;;;;17.13;9.10;;;;;;;8.54;73.66;100817.38;30737494;28;97899;-64
2023/05/25 01:51:54;;;;;;;18.95;8.25;;;;;;;8.24;73.98;100832.47;30736380;28;96990;-63
2023/05/25 02:06:54;;;;;;;13.30;7.20;;;;;;;8.07;74.63;100832.16;30734417;28;96824;-65
2023/05/25 02:21:55;;;;;;;18.77;8.50;;;;;;;8.00;75.30;100840.84;30733992;28;96608;-64
2023/05/25 02:36:55;;;;;;;17.17;8.45;;;;;;;7.90;75.07;100830.19;30732685;28;96639;-65
2023/05/25 02:51:55;;;;;;;17.88;8.40;;;;;;;7.77;74.93;100831.28;30731504;28;97114;-66
2023/05/25 03:06:56;;;;;;;16.15;10.18;;;;;;;7.77;75.99;100830.44;30729371;28;96733;-65
2023/05/25 03:21:56;;;;;;;18.83;9.75;;;;;;;7.90;76.33;100856.72;30743087;28;96743;-65
2023/05/25 03:36:56;;;;;;;17.65;9.55;;;;;;;8.36;76.17;100868.50;30747015;28;97338;-66
2023/05/25 03:52:00;;;;;;;14.43;9.48;;;;;;;8.63;76.07;100867.00;30747247;28;96609;-64
2023/05/25 04:07:00;;;;;;;19.23;9.20;;;;;;;8.92;75.49;100869.63;30745415;28;96662;-65
2023/05/25 04:22:00;;;;;;;16.23;9.82;;;;;;;9.48;75.58;100886.53;30743681;28;96700;-65
2023/05/25 04:37:04;;;;;;;18.67;10.73;;;;;;;9.64;75.06;100893.88;30742925;28;96734;-65
2023/05/25 04:52:04;;;;;;;16.10;9.10;;;;;;;9.99;74.20;100913.59;30741724;28;96617;-65
2023/05/25 05:07:06;;;;;;;14.30;8.32;;;;;;;10.04;73.44;100905.16;30729174;28;97842;-65
2023/05/25 05:22:08;;;;;;;16.67;8.83;;;;;;;10.12;73.45;100912.41;30738951;28;97371;-65
2023/05/25 05:37:08;;;;;;;16.33;8.60;;;;;;;10.42;73.65;100921.91;30735736;28;96737;-66
2023/05/25 05:52:09;;;;;;;17.02;8.52;;;;;;;10.77;73.32;100930.91;30736966;28;96733;-65
2023/05/25 06:07:10;;;;;;;12.30;7.15;;;;;;;11.32;72.01;100928.97;30736119;28;97539;-65
2023/05/25 06:22:10;;;;;;;12.90;7.65;;;;;;;12.00;72.17;100932.66;30732483;28;97418;-65
2023/05/25 06:37:11;;;;;;;12.93;6.95;;;;;;;12.67;70.70;100938.00;30731785;28;106919;-66
2023/05/25 06:52:11;;;;;;;13.48;6.78;;;;;;;13.30;69.03;100937.47;30738700;28;96714;-67
2023/05/25 07:07:12;;;;;;;14.18;6.75;;;;;;;13.70;67.87;100933.06;30751681;28;97429;-65
2023/05/25 07:22:15;;;;;;;12.63;7.07;;;;;;;13.94;67.00;100933.97;30750699;28;96877;-66
2023/05/25 07:37:16;;;;;;;13.40;6.07;;;;;;;14.59;66.93;100948.03;30748037;28;96884;-63
2023/05/25 07:52:17;;;;;;;12.95;6.90;;;;;;;15.15;65.63;100947.78;30748758;28;97348;-67
2023/05/25 08:07:18;;;;;;;13.20;6.07;;;;;;;15.35;64.21;100961.50;30743673;28;97741;-66
2023/05/25 08:22:19;;;;;;;11.97;6.40;;;;;;;15.90;62.61;100944.16;30746330;28;96778;-68
2023/05/25 08:37:22;;;;;;;10.18;6.70;;;;;;;16.40;61.98;100949.72;30742366;28;113005;-65
2023/05/25 08:52:26;;;;;;;13.10;6.10;;;;;;;16.90;60.65;100957.88;30741918;28;96719;-67
2023/05/25 09:07:29;;;;;;;15.23;5.37;;;;;;;17.44;58.97;100966.38;30738996;28;96931;-66
2023/05/25 09:22:29;;;;;;;10.03;5.80;;;;;;;17.84;57.69;100963.94;30737975;28;97122;-67
2023/05/25 09:37:29;;;;;;;9.38;4.80;;;;;;;18.27;55.80;100970.97;30734867;28;111287;-66
2023/05/25 09:52:30;;;;;;;15.45;5.88;;;;;;;18.43;54.94;100964.41;30735826;28;109302;-70
2023/05/25 10:07:31;;;;;;;10.20;4.57;;;;;;;19.57;52.34;100969.88;30734814;28;97566;-67
2023/05/25 10:22:38;;;;;;;8.38;4.22;;;;;;;22.00;48.67;100959.94;30735417;28;96895;-66
2023/05/25 10:37:39;;;;;;;9.40;4.30;;;;;;;24.45;42.45;100957.88;30681026;28;97582;-67
2023/05/25 10:52:39;;;;;;;6.60;4.10;;;;;;;26.30;37.84;100951.59;30650664;28;96895;-68
2023/05/25 11:07:56;;;;;;;9.68;4.40;;;;;;;27.30;35.54;100942.06;30608301;28;111036;-66
2023/05/25 11:22:57;;;;;;;5.80;3.70;;;;;;;28.15;33.79;100946.59;30607882;28;96681;-69
2023/05/25 11:37:59;;;;;;;7.60;4.22;;;;;;;27.57;33.25;100927.47;30613211;28;97035;-67
2023/05/25 11:53:03;;;;;;;6.67;3.73;;;;;;;28.16;33.23;100922.78;30629328;28;96827;-67
2023/05/25 12:08:04;;;;;;;7.23;3.53;;;;;;;26.44;34.18;100907.50;30625254;28;96835;-68
2023/05/25 12:23:04;;;;;;;9.18;3.83;;;;;;;25.82;34.55;100904.91;30621934;28;97057;-67
2023/05/25 12:38:12;;;;;;;7.15;3.45;;;;;;;24.69;36.34;100900.56;30620074;28;96784;-69
2023/05/25 12:53:13;;;;;;;9.40;3.47;;;;;;;24.55;37.28;100880.97;30667419;28;97208;-65
2023/05/25 13:08:14;;;;;;;9.20;4.00;;;;;;;23.91;38.50;100892.06;30738836;28;96822;-66
2023/05/25 13:23:15;;;;;;;7.82;3.42;;;;;;;24.32;38.34;100863.69;30731561;28;97978;-69
2023/05/25 13:38:15;;;;;;;10.77;4.05;;;;;;;25.64;36.43;100850.66;30744684;28;97338;-68
2023/05/25 13:53:16;;;;;;;7.88;3.80;;;;;;;25.58;36.50;100848.97;30754612;28;97107;-69
2023/05/25 14:08:16;;;;;;;8.00;3.22;;;;;;;25.61;36.33;100832.88;30710886;28;97206;-70
2023/05/25 14:23:18;;;;;;;8.25;3.45;;;;;;;25.26;36.96;100825.91;30712760;28;96719;-68
2023/05/25 14:38:18;;;;;;;10.70;3.47;;;;;;;24.74;37.09;100809.91;30716643;28;97273;-68
2023/05/25 14:53:18;;;;;;;9.40;4.13;;;;;;;24.01;37.86;100807.06;30721834;28;96994;-68
2023/05/25 15:08:19;;;;;;;6.22;3.13;;;;;;;23.73;39.14;100809.53;30724567;28;112754;-70
2023/05/25 15:23:20;;;;;;;9.50;3.13;;;;;;;23.18;39.68;100797.28;30714724;28;98019;-69
2023/05/25 15:38:20;;;;;;;7.82;3.40;;;;;;;23.06;40.81;100818.19;30682712;28;96869;-69
2023/05/25 15:53:20;;;;;;;8.52;3.33;;;;;;;22.40;41.16;100805.53;30719117;28;113878;-71
2023/05/25 16:08:21;;;;;;;8.48;3.15;;;;;;;21.80;42.22;100791.00;30732344;28;107898;-69
2023/05/25 16:23:24;;;;;;;7.13;2.80;;;;;;;21.05;43.44;100788.53;30733724;28;97111;-72
2023/05/25 16:38:24;;;;;;;7.03;3.23;;;;;;;20.83;44.09;100775.47;30732518;28;97186;-68
2023/05/25 16:53:25;;;;;;;7.27;3.37;;;;;;;20.50;44.88;100768.44;30732467;28;96825;-69
2023/05/25 17:08:25;;;;;;;9.10;3.20;;;;;;;20.20;45.47;100784.50;30730217;28;97867;-68
2023/05/25 17:23:25;;;;;;;8.90;3.43;;;;;;;19.95;46.06;100772.59;30695501;28;114445;-69
2023/05/25 17:38:26;;;;;;;7.20;3.30;;;;;;;19.30;47.03;100763.78;30631594;28;97497;-72
2023/05/25 17:53:26;;;;;;;5.85;3.50;;;;;;;18.69;48.33;100776.59;30605559;28;97691;-68
2023/05/25 18:08:27;;;;;;;8.20;3.75;;;;;;;18.53;49.37;100773.28;30651721;28;97751;-70
2023/05/25 18:23:27;;;;;;;10.45;5.45;;;;;;;17.94;50.51;100777.59;30656827;28;97120;-70
2023/05/25 18:38:27;;;;;;;10.15;5.13;;;;;;;17.29;51.81;100771.78;30612255;28;108964;-72
2023/05/25 18:53:28;;;;;;;13.40;7.00;;;;;;;16.69;53.80;100788.38;30609296;28;108003;-68
2023/05/25 19:08:28;;;;;;;12.48;6.80;;;;;;;16.14;55.65;100805.06;30664782;28;96761;-72
2023/05/25 19:23:28;;;;;;;18.40;8.60;;;;;;;15.66;57.38;100812.81;30724180;28;109293;-70
2023/05/25 19:38:29;;;;;;;19.25;13.85;;;;;;;15.24;58.57;100820.56;30724254;28;96686;-71
2023/05/25 19:53:30;;;;;;;18.27;8.32;;;;;;;14.93;59.76;100818.88;30723181;28;110424;-71
2023/05/25 20:08:30;;;;;;;9.23;5.97;;;;;;;14.64;60.44;100825.84;30744504;28;97221;-71
2023/05/25 20:23:31;;;;;;;9.60;6.75;;;;;;;14.36;61.54;100838.94;30751689;28;102733;-71
2023/05/25 20:38:31;;;;;;;13.35;7.93;;;;;;;14.09;62.43;100848.34;30743939;28;96789;-70
2023/05/25 20:53:31;;;;;;;18.48;11.02;;;;;;;13.83;63.13;100850.34;30738317;28;112034;-67
2023/05/25 21:08:32;;;;;;;20.33;11.40;;;;;;;13.60;64.03;100844.06;30738841;28;96980;-67
2023/05/25 21:23:32;;;;;;;18.58;11.05;;;;;;;13.46;64.91;100849.16;30738314;28;97946;-66
2023/05/25 21:38:33;;;;;;;17.10;10.10;;;;;;;13.26;65.56;100845.16;30736431;28;117060;-65
2023/05/25 21:53:33;;;;;;;17.67;9.63;;;;;;;13.10;66.11;100849.56;30735694;28;113909;-66
2023/05/25 22:08:34;;;;;;;14.00;8.90;;;;;;;12.95;67.06;100852.09;30735945;28;97620;-65
2023/05/25 22:23:34;;;;;;;14.73;8.60;;;;;;;12.84;67.41;100868.50;30672912;28;97144;-67
2023/05/25 22:38:35;;;;;;;15.73;8.48;;;;;;;12.79;67.88;100874.34;30617132;28;102382;-66
2023/05/25 22:53:35;;;;;;;13.88;7.85;;;;;;;12.82;67.94;100870.50;30610936;28;96778;-66
2023/05/25 23:08:36;;;;;;;12.27;8.32;;;;;;;12.61;68.36;100865.66;30610003;28;97378;-67
2023/05/25 23:23:36;;;;;;;14.02;9.00;;;;;;;12.31;68.64;100863.47;30728919;28;100473;-67
2023/05/25 23:38:36;;;;;;;16.27;9.25;;;;;;;12.10;69.65;100858.59;30740847;28;113694;-66
2023/05/25 23:53:37;;;;;;;12.35;8.05;;;;;;;12.00;70.21;100864.09;30748327;28;109605;-67
